Cerro Del Tepeyac — XCAR2 — position and weather

sailwx.info

Track history (hours):
 
Tides and Currents Weather Stations Pressure Air Temp Water Temp Dewpoint Dewpoint Depression Visibility Wind Speed Wind Dir Waves Ship Positions

Cerro Del Tepeyac

Last reported at 2018-Mar-15 23:19 UTC. Time now 2018-Jun-24 07:03 UTC.
Position N 19°35' W 096°10'.
Warning: this ship's position is months out of date.

Length 120 m; draft 5.3 m.

Type: Tanker. MMSI: 345030096.

Date/timePositionNaut miles runAvg speedWind from/ knotsBaromVisibWave heightAir tempDewpointWater temp
2018-Mar-15 23:19N 19°35' W 096°10'2 5.2
2018-Mar-15 23:00N 19°34' W 096°09'3 5.1
2018-Mar-15 22:30N 19°32' W 096°08'2 5.0
2018-Mar-15 22:00N 19°29' W 096°06'2 4.8
2018-Mar-15 21:31N 19°28' W 096°05'3 5.0
2018-Mar-15 20:57N 19°25' W 096°03'2 5.1
2018-Mar-15 20:30N 19°24' W 096°01'2 4.8
2018-Mar-15 20:00N 19°22' W 095°60'3 5.1
2018-Mar-15 19:30N 19°20' W 095°58'3 5.1
2018-Mar-15 19:00N 19°17' W 095°57'3 5.2
2018-Mar-15 18:31N 19°15' W 095°57'3 5.6
2018-Mar-15 18:00N 19°13' W 095°59'3 5.7
2018-Mar-15 17:30N 19°12' W 096°02'2 4.7
2018-Mar-15 17:00N 19°11' W 096°04'3 5.2
2018-Mar-15 16:29N 19°12' W 096°07'1 2.1
2018-Mar-15 15:59N 19°12' W 096°08'0 0.0
2018-Mar-15 15:29N 19°12' W 096°08'0 0.0
2018-Mar-15 14:53N 19°12' W 096°08'0 0.0
2018-Mar-15 14:29N 19°12' W 096°08'0 0.0
2018-Mar-15 13:59N 19°12' W 096°08'0 0.0
2018-Mar-15 13:23N 19°12' W 096°08'0 0.0
2018-Mar-15 12:47N 19°12' W 096°08'0 0.0
2018-Mar-15 12:29N 19°12' W 096°08'0 0.0
2018-Mar-15 11:59N 19°12' W 096°08'0 0.0
2018-Mar-15 11:29N 19°12' W 096°08'0 0.0
2018-Mar-15 10:59N 19°12' W 096°08'0 0.0
2018-Mar-15 10:29N 19°12' W 096°08'0 0.0
2018-Mar-15 09:59N 19°12' W 096°08'0 0.0
2018-Mar-15 09:29N 19°12' W 096°08'0 0.0
2018-Mar-15 08:59N 19°12' W 096°08'0 0.0
2018-Mar-15 08:29N 19°12' W 096°08'0 0.0
2018-Mar-15 07:59N 19°12' W 096°08'0 0.0
2018-Mar-15 07:23N 19°12' W 096°08'0 0.0
2018-Mar-15 06:59N 19°12' W 096°08'0 0.0
2018-Mar-15 06:29N 19°12' W 096°08'0 0.0
2018-Mar-15 05:47N 19°12' W 096°08'0 0.0
2018-Mar-15 05:29N 19°12' W 096°08'0 0.0
2018-Mar-15 04:53N 19°12' W 096°08'0 0.0
2018-Mar-15 04:29N 19°12' W 096°08'0 0.0
2018-Mar-15 03:59N 19°12' W 096°08'0 0.0
2018-Mar-15 03:29N 19°12' W 096°08'0 0.0
2018-Mar-15 02:59N 19°12' W 096°08'0 0.0
2018-Mar-15 02:17N 19°12' W 096°08'0 0.0
2018-Mar-15 01:59N 19°12' W 096°08'0 0.0
2018-Mar-15 01:29N 19°12' W 096°08'0 0.0
2018-Mar-15 00:53N 19°12' W 096°08'0 0.0
2018-Mar-15 00:29N 19°12' W 096°08'0 0.0
2018-Mar-14 23:59N 19°12' W 096°08'0 0.0
2018-Mar-14 23:29N 19°12' W 096°08'0 0.0
2018-Mar-14 22:59N 19°12' W 096°08'0 0.0
2018-Mar-14 22:29N 19°12' W 096°08'0 0.0
2018-Mar-14 21:59N 19°12' W 096°08'0 0.0
2018-Mar-14 21:23N 19°12' W 096°08'0 0.0
2018-Mar-14 20:59N 19°12' W 096°08'0 0.0
2018-Mar-14 20:29N 19°12' W 096°08'0 0.0
2018-Mar-14 19:59N 19°12' W 096°08'0 0.0
2018-Mar-14 19:29N 19°12' W 096°08'0 0.0
2018-Mar-14 18:59N 19°12' W 096°08'0 0.0
2018-Mar-14 18:29N 19°12' W 096°08'0 0.0
2018-Mar-14 17:59N 19°12' W 096°08'0 0.0
2018-Mar-14 17:29N 19°12' W 096°08'0 0.0
2018-Mar-14 16:59N 19°12' W 096°08'0 0.0
2018-Mar-14 16:29N 19°12' W 096°08'0 0.0
2018-Mar-14 15:53N 19°12' W 096°08'0 0.0
2018-Mar-14 15:29N 19°12' W 096°08'0 0.0
2018-Mar-14 14:59N 19°12' W 096°08'0 0.0
2018-Mar-14 14:29N 19°12' W 096°08'0 0.0
2018-Mar-14 13:59N 19°12' W 096°08'0 0.0
2018-Mar-14 13:29N 19°12' W 096°08'0 0.0
2018-Mar-14 12:59N 19°12' W 096°08'0 0.0
2018-Mar-14 12:29N 19°12' W 096°08'0 0.0
2018-Mar-14 11:59N 19°12' W 096°08'0 0.0
2018-Mar-14 11:29N 19°12' W 096°08'0 0.0
2018-Mar-14 10:59N 19°12' W 096°08'0 0.0
2018-Mar-14 10:29N 19°12' W 096°08'0 0.0
2018-Mar-14 09:59N 19°12' W 096°08'0 0.0
2018-Mar-14 09:29N 19°12' W 096°08'0 0.0
2018-Mar-14 08:53N 19°12' W 096°08'0 0.0
2018-Mar-14 08:29N 19°12' W 096°08'0 0.0
2018-Mar-14 07:59N 19°12' W 096°08'0 0.0
2018-Mar-14 07:29N 19°12' W 096°08'0 0.0
2018-Mar-14 06:59N 19°12' W 096°08'0 0.0
2018-Mar-14 06:29N 19°12' W 096°08'0 0.0
2018-Mar-14 05:59N 19°12' W 096°08'0 0.0
2018-Mar-14 05:29N 19°12' W 096°08'0 0.0
2018-Mar-14 04:59N 19°12' W 096°08'0 0.0
2018-Mar-14 04:29N 19°12' W 096°08'0 0.0
2018-Mar-14 03:56N 19°12' W 096°08'0 0.0
2018-Mar-14 03:29N 19°12' W 096°08'0 0.0
2018-Mar-14 02:59N 19°12' W 096°08'0 0.0
2018-Mar-14 02:29N 19°12' W 096°08'0 0.0
2018-Mar-14 01:59N 19°12' W 096°08'0 0.0
2018-Mar-14 01:29N 19°12' W 096°08'0 0.0
2018-Mar-14 00:59N 19°12' W 096°08'0 0.0
2018-Mar-14 00:29N 19°12' W 096°08'0 0.0
2018-Mar-13 23:59N 19°12' W 096°08'0 0.0
2018-Mar-13 23:29N 19°12' W 096°08'0 0.0
2018-Mar-13 22:59N 19°12' W 096°08'0 0.0
2018-Mar-13 22:29N 19°12' W 096°08'0 0.0
2018-Mar-13 21:59N 19°12' W 096°08'0 0.0
2018-Mar-13 21:29N 19°12' W 096°08'0 0.0
2018-Mar-13 20:59N 19°12' W 096°08'0 0.0
2018-Mar-13 20:29N 19°12' W 096°08'0 0.0
2018-Mar-13 19:59N 19°12' W 096°08'0 0.0
2018-Mar-13 19:29N 19°12' W 096°08'0 0.0
2018-Mar-13 18:59N 19°12' W 096°08'0 0.0
2018-Mar-13 18:29N 19°12' W 096°08'0 0.0
2018-Mar-13 17:53N 19°12' W 096°08'0 0.0
2018-Mar-13 17:29N 19°12' W 096°08'0 0.0
2018-Mar-13 16:59N 19°12' W 096°08'0 0.0
2018-Mar-13 16:29N 19°12' W 096°08'0 0.0
2018-Mar-13 15:59N 19°12' W 096°08'0 0.0
2018-Mar-13 15:29N 19°12' W 096°08'0 0.0
2018-Mar-13 14:59N 19°12' W 096°08'0 0.0
2018-Mar-13 14:29N 19°12' W 096°08'0 0.0
2018-Mar-13 13:53N 19°12' W 096°08'0 0.0
2018-Mar-13 13:29N 19°12' W 096°08'0 0.0
2018-Mar-13 12:59N 19°12' W 096°08'0 0.0
2018-Mar-13 12:29N 19°12' W 096°08'0 0.0
2018-Mar-13 11:59N 19°12' W 096°08'0 0.0
2018-Mar-13 11:29N 19°12' W 096°08'0 0.0
2018-Mar-13 10:59N 19°12' W 096°08'0 0.0
2018-Mar-13 10:26N 19°12' W 096°08'0 0.0
2018-Mar-13 09:59N 19°12' W 096°08'0 0.0
2018-Mar-13 09:29N 19°12' W 096°08'0 0.0
2018-Mar-13 08:59N 19°12' W 096°08'0 0.0
2018-Mar-13 08:29N 19°12' W 096°08'0 0.0
2018-Mar-13 07:59N 19°12' W 096°08'0 0.0
2018-Mar-13 07:29N 19°12' W 096°08'0 0.0
2018-Mar-13 06:59N 19°12' W 096°08'0 0.0
2018-Mar-13 06:29N 19°12' W 096°08'0 0.0
2018-Mar-13 05:59N 19°12' W 096°08'0 0.0
2018-Mar-13 05:29N 19°12' W 096°08'0 0.0
2018-Mar-13 04:59N 19°12' W 096°08'0 0.0
2018-Mar-13 04:29N 19°12' W 096°08'0 0.0
2018-Mar-13 03:59N 19°12' W 096°08'0 0.0
2018-Mar-13 03:29N 19°12' W 096°08'0 0.0
2018-Mar-13 02:59N 19°12' W 096°08'0 0.0
2018-Mar-13 02:29N 19°12' W 096°08'0 0.0
2018-Mar-13 01:59N 19°12' W 096°08'0 0.0
2018-Mar-13 01:29N 19°12' W 096°08'0 0.0
2018-Mar-13 00:59N 19°12' W 096°08'0 0.0
2018-Mar-13 00:29N 19°12' W 096°08'0 0.0
2018-Mar-12 23:53N 19°12' W 096°08'0 0.0
2018-Mar-12 23:29N 19°12' W 096°08'0 0.0
2018-Mar-12 22:59N 19°12' W 096°08'0 0.0
2018-Mar-12 22:29N 19°12' W 096°08'0 0.0
2018-Mar-12 21:56N 19°12' W 096°08'0 0.0
2018-Mar-12 21:29N 19°12' W 096°08'0 0.0
2018-Mar-12 20:59N 19°12' W 096°08'0 0.0
2018-Mar-12 20:29N 19°12' W 096°08'0 0.0
2018-Mar-12 19:59N 19°12' W 096°08'0 0.0
2018-Mar-12 19:29N 19°12' W 096°08'0 0.0
2018-Mar-12 18:59N 19°12' W 096°08'0 0.0
2018-Mar-12 18:29N 19°12' W 096°08'0 0.0
2018-Mar-12 17:56N 19°12' W 096°08'0 0.0
2018-Mar-12 17:29N 19°12' W 096°08'0 0.0
2018-Mar-12 16:59N 19°12' W 096°08'0 0.0
2018-Mar-12 16:11N 19°12' W 096°08'0 0.0
2018-Mar-12 15:53N 19°12' W 096°08'0 0.0
2018-Mar-12 15:29N 19°12' W 096°08'0 0.0
2018-Mar-12 14:53N 19°12' W 096°08'0 0.0
2018-Mar-12 14:29N 19°12' W 096°08'0 0.0
2018-Mar-12 13:59N 19°12' W 096°08'0 0.0
2018-Mar-12 13:29N 19°12' W 096°08'0 0.0
2018-Mar-12 12:59N 19°12' W 096°08'0 0.0
2018-Mar-12 12:29N 19°12' W 096°08'0 0.0
2018-Mar-12 11:59N 19°12' W 096°08'0 0.0
2018-Mar-12 11:29N 19°12' W 096°08'0 0.0
2018-Mar-12 10:59N 19°12' W 096°08'0 0.0
2018-Mar-12 10:29N 19°12' W 096°08'0 0.0
2018-Mar-12 09:59N 19°12' W 096°08'0 0.0
2018-Mar-12 09:29N 19°12' W 096°08'0 0.0
2018-Mar-12 08:59N 19°12' W 096°08'0 0.0
2018-Mar-12 08:29N 19°12' W 096°08'0 0.0
2018-Mar-12 07:59N 19°12' W 096°08'0 0.0
2018-Mar-12 07:26N 19°12' W 096°08'0 0.0
2018-Mar-12 06:59N 19°12' W 096°08'0 0.0
2018-Mar-12 06:26N 19°12' W 096°08'0 0.0
2018-Mar-12 05:59N 19°12' W 096°08'0 0.0
2018-Mar-12 05:29N 19°12' W 096°08'0 0.0
2018-Mar-12 04:59N 19°12' W 096°08'0 0.0
2018-Mar-12 04:29N 19°12' W 096°08'0 0.0
2018-Mar-12 03:59N 19°12' W 096°08'0 0.0
2018-Mar-12 03:29N 19°12' W 096°08'0 0.0
2018-Mar-12 02:59N 19°12' W 096°08'0 0.0
2018-Mar-12 02:29N 19°12' W 096°08'0 0.0
2018-Mar-12 01:59N 19°12' W 096°08'0 0.0
2018-Mar-12 01:29N 19°12' W 096°08'0 0.0
2018-Mar-12 00:59N 19°12' W 096°08'0 0.0
2018-Mar-12 00:29N 19°12' W 096°08'0 0.0
2018-Mar-11 23:59N 19°12' W 096°08'0 0.0
2018-Mar-11 23:29N 19°12' W 096°08'0 0.0
2018-Mar-11 22:59N 19°12' W 096°08'0 0.0
2018-Mar-11 22:26N 19°12' W 096°08'0 0.0
2018-Mar-11 21:59N 19°12' W 096°08'0 0.0
2018-Mar-11 21:29N 19°12' W 096°08'0 0.0
2018-Mar-11 20:59N 19°12' W 096°08'0 0.0
2018-Mar-11 20:23N 19°12' W 096°08'0 0.0
2018-Mar-11 19:59N 19°12' W 096°08'0 0.0
2018-Mar-11 19:29N 19°12' W 096°08'0 0.0
2018-Mar-11 18:59N 19°12' W 096°08'0 0.0
2018-Mar-11 18:29N 19°12' W 096°08'0 0.0
2018-Mar-11 17:59N 19°12' W 096°08'0 0.0
2018-Mar-11 17:29N 19°12' W 096°08'0 0.0
2018-Mar-11 16:59N 19°12' W 096°08'0 0.0
2018-Mar-11 16:26N 19°12' W 096°08'0 0.0
2018-Mar-11 15:59N 19°12' W 096°08'0 0.0
2018-Mar-11 15:29N 19°12' W 096°08'0 0.0
2018-Mar-11 14:53N 19°12' W 096°08'0 0.0
2018-Mar-11 14:29N 19°12' W 096°08'0 0.0
2018-Mar-11 13:59N 19°12' W 096°08'0 0.0
2018-Mar-11 13:29N 19°12' W 096°08'0 0.0
2018-Mar-11 12:59N 19°12' W 096°08'0 0.0
2018-Mar-11 12:26N 19°12' W 096°08'0 0.0
2018-Mar-11 11:59N 19°12' W 096°08'0 0.0
2018-Mar-11 11:29N 19°12' W 096°08'0 0.0
2018-Mar-11 10:50N 19°12' W 096°08'0 0.0
2018-Mar-11 10:29N 19°12' W 096°08'0 0.0
2018-Mar-11 09:59N 19°12' W 096°08'0 0.0
2018-Mar-11 09:29N 19°12' W 096°08'0 0.0
2018-Mar-11 08:59N 19°12' W 096°08'0 0.0
2018-Mar-11 08:29N 19°12' W 096°08'0 0.0
2018-Mar-11 07:59N 19°12' W 096°08'0 0.0
2018-Mar-11 07:29N 19°12' W 096°08'0 0.0
2018-Mar-11 06:59N 19°12' W 096°08'0 0.0
2018-Mar-11 06:23N 19°12' W 096°08'0 0.0
2018-Mar-11 05:59N 19°12' W 096°08'0 0.0
2018-Mar-11 05:29N 19°12' W 096°08'0 0.0
2018-Mar-11 04:59N 19°12' W 096°08'0 0.0
2018-Mar-11 04:29N 19°12' W 096°08'0 0.0
2018-Mar-11 03:59N 19°12' W 096°08'0 0.0
2018-Mar-11 03:29N 19°12' W 096°08'0 0.0
2018-Mar-11 02:59N 19°12' W 096°08'0 0.0
2018-Mar-11 02:29N 19°12' W 096°08'0 0.0
2018-Mar-11 01:59N 19°12' W 096°08'0 0.0
2018-Mar-11 01:29N 19°12' W 096°08'0 0.0
2018-Mar-11 00:59N 19°12' W 096°08'0 0.0
2018-Mar-11 00:29N 19°12' W 096°08'0 0.0
2018-Mar-10 23:59N 19°12' W 096°08'0 0.0
2018-Mar-10 23:29N 19°12' W 096°08'0 0.0
2018-Mar-10 22:59N 19°12' W 096°08'0 0.0
2018-Mar-10 22:29N 19°12' W 096°08'0 0.0
2018-Mar-10 21:59N 19°12' W 096°08'0 0.0
2018-Mar-10 21:29N 19°12' W 096°08'0 0.0
2018-Mar-10 20:59N 19°12' W 096°08'0 0.0
2018-Mar-10 20:29N 19°12' W 096°08'0 0.0
2018-Mar-10 19:59N 19°12' W 096°08'0 0.0
2018-Mar-10 19:29N 19°12' W 096°08'0 0.0
2018-Mar-10 18:59N 19°12' W 096°08'0 0.0
2018-Mar-10 18:23N 19°12' W 096°08'0 0.0
2018-Mar-10 17:59N 19°12' W 096°08'0 0.0
2018-Mar-10 17:29N 19°12' W 096°08'0 0.0
2018-Mar-10 16:53N 19°12' W 096°08'0 0.0
2018-Mar-10 16:29N 19°12' W 096°08'0 0.0
2018-Mar-10 15:59N 19°12' W 096°08'0 0.0
2018-Mar-10 15:29N 19°12' W 096°08'0 0.0
2018-Mar-10 14:59N 19°12' W 096°08'0 0.0
2018-Mar-10 14:29N 19°12' W 096°08'0 0.0
2018-Mar-10 13:59N 19°12' W 096°08'0 0.0
2018-Mar-10 13:29N 19°12' W 096°08'0 0.0
2018-Mar-10 12:59N 19°12' W 096°08'0 0.0
2018-Mar-10 12:29N 19°12' W 096°08'0 0.0
2018-Mar-10 11:59N 19°12' W 096°08'0 0.0
2018-Mar-10 11:29N 19°12' W 096°08'0 0.0
2018-Mar-10 10:59N 19°12' W 096°08'0 0.0
2018-Mar-10 10:29N 19°12' W 096°08'0 0.0
2018-Mar-10 09:59N 19°12' W 096°08'0 0.0
2018-Mar-10 09:29N 19°12' W 096°08'0 0.0
2018-Mar-10 08:56N 19°12' W 096°08'0 0.0
2018-Mar-10 08:29N 19°12' W 096°08'0 0.0
2018-Mar-10 07:59N 19°12' W 096°08'0 0.0
2018-Mar-10 07:29N 19°12' W 096°08'0 0.0
2018-Mar-10 06:59N 19°12' W 096°08'0 0.0
2018-Mar-10 06:23N 19°12' W 096°08'0 0.0
2018-Mar-10 05:59N 19°12' W 096°08'0 0.0
2018-Mar-10 05:29N 19°12' W 096°08'0 0.0
2018-Mar-10 04:59N 19°12' W 096°08'0 0.0
2018-Mar-10 04:29N 19°12' W 096°08'0 0.0
2018-Mar-10 03:59N 19°12' W 096°08'0 0.0
2018-Mar-10 03:29N 19°12' W 096°08'0 0.0
2018-Mar-10 02:59N 19°12' W 096°08'0 0.0
2018-Mar-10 02:23N 19°12' W 096°08'0 0.0
2018-Mar-10 01:59N 19°12' W 096°08'0 0.0
2018-Mar-10 01:29N 19°12' W 096°08'0 0.0
2018-Mar-10 00:59N 19°12' W 096°08'0 0.0
2018-Mar-10 00:29N 19°12' W 096°08'0 0.0
2018-Mar-09 23:59N 19°12' W 096°08'0 0.0
2018-Mar-09 23:29N 19°12' W 096°08'0 0.0
2018-Mar-09 22:59N 19°12' W 096°08'0 0.0
2018-Mar-09 22:29N 19°12' W 096°08'0 0.0
2018-Mar-09 21:59N 19°12' W 096°08'0 0.0
2018-Mar-09 21:29N 19°12' W 096°08'0 0.0
2018-Mar-09 20:59N 19°12' W 096°08'0 0.0
2018-Mar-09 20:29N 19°12' W 096°08'0 0.0
2018-Mar-09 19:53N 19°12' W 096°08'0 0.0
2018-Mar-09 19:29N 19°12' W 096°08'0 0.0
2018-Mar-09 18:59N 19°12' W 096°08'0 0.0
2018-Mar-09 18:29N 19°12' W 096°08'0 0.0
2018-Mar-09 17:59N 19°12' W 096°08'0 0.0
2018-Mar-09 17:29N 19°12' W 096°08'0 0.0
2018-Mar-09 16:59N 19°12' W 096°08'0 0.0
2018-Mar-09 16:29N 19°12' W 096°08'0 0.0
2018-Mar-09 15:59N 19°12' W 096°08'0 0.0
2018-Mar-09 15:29N 19°12' W 096°08'0 0.0
2018-Mar-09 14:59N 19°12' W 096°08'0 0.0
2018-Mar-09 14:26N 19°12' W 096°08'0 0.0
2018-Mar-09 13:53N 19°12' W 096°08'0 0.0
2018-Mar-09 13:29N 19°12' W 096°08'0 0.0
2018-Mar-09 12:59N 19°12' W 096°08'0 0.0
2018-Mar-09 12:29N 19°12' W 096°08'0 0.0
2018-Mar-09 11:59N 19°12' W 096°08'0 0.0
2018-Mar-09 11:29N 19°12' W 096°08'0 0.0
2018-Mar-09 10:59N 19°12' W 096°08'0 0.0
2018-Mar-09 10:29N 19°12' W 096°08'0 0.0
2018-Mar-09 09:50N 19°12' W 096°08'0 0.0
2018-Mar-09 09:29N 19°12' W 096°08'0 0.0
2018-Mar-09 08:59N 19°12' W 096°08'0 0.0
2018-Mar-09 08:29N 19°12' W 096°08'0 0.0
2018-Mar-09 07:59N 19°12' W 096°08'0 0.0
2018-Mar-09 07:29N 19°12' W 096°08'0 0.0
2018-Mar-09 06:59N 19°12' W 096°08'0 0.0
2018-Mar-09 06:29N 19°12' W 096°08'0 0.0
2018-Mar-09 05:59N 19°12' W 096°08'0 0.0
2018-Mar-09 05:29N 19°12' W 096°08'0 0.0
2018-Mar-09 04:59N 19°12' W 096°08'0 0.0
2018-Mar-09 04:29N 19°12' W 096°08'0 0.0
2018-Mar-09 03:56N 19°12' W 096°08'0 0.0
2018-Mar-09 03:29N 19°12' W 096°08'0 0.0
2018-Mar-09 02:59N 19°12' W 096°08'0 0.0
2018-Mar-09 02:29N 19°12' W 096°08'0 0.0
2018-Mar-09 01:53N 19°12' W 096°08'0 0.0
2018-Mar-09 01:29N 19°12' W 096°08'0 0.0
2018-Mar-09 00:59N 19°12' W 096°08'0 0.0
2018-Mar-09 00:29N 19°12' W 096°08'0 0.0
2018-Mar-08 23:59N 19°12' W 096°08'0 0.0
2018-Mar-08 23:29N 19°12' W 096°08'0 0.0
2018-Mar-08 22:59N 19°12' W 096°08'0 0.0
2018-Mar-08 22:29N 19°12' W 096°08'0 0.0
2018-Mar-08 21:56N 19°12' W 096°08'0 0.0
2018-Mar-08 21:23N 19°12' W 096°08'0 0.0
2018-Mar-08 20:59N 19°12' W 096°08'0 0.0
2018-Mar-08 20:23N 19°12' W 096°08'0 0.0
2018-Mar-07 21:59N 19°12' W 096°08'0 0.0
2018-Mar-07 21:29N 19°12' W 096°08'0 0.0
2018-Mar-07 20:59N 19°12' W 096°08'0 0.0
2018-Mar-07 20:29N 19°12' W 096°08'0 0.0
2018-Mar-07 19:59N 19°12' W 096°08'0 0.0
2018-Mar-07 19:29N 19°12' W 096°08'0 0.0
2018-Mar-07 18:59N 19°12' W 096°08'0 0.0
2018-Mar-07 18:26N 19°12' W 096°08'0 0.0
2018-Mar-07 17:59N 19°12' W 096°08'0 0.0
2018-Mar-07 17:29N 19°12' W 096°08'0 0.0
2018-Mar-07 16:59N 19°12' W 096°08'0 0.0
2018-Mar-07 16:26N 19°12' W 096°08'0 0.0
2018-Mar-07 15:59N 19°12' W 096°08'0 0.0
2018-Mar-07 15:29N 19°12' W 096°08'0 0.0
2018-Mar-07 14:56N 19°12' W 096°08'0 0.0
2018-Mar-07 14:29N 19°12' W 096°08'0 0.0
2018-Mar-07 13:59N 19°12' W 096°08'0 0.0
2018-Mar-07 13:17N 19°12' W 096°08'0 0.0
2018-Mar-07 12:59N 19°12' W 096°08'0 0.0
2018-Mar-07 12:29N 19°12' W 096°08'0 0.0
2018-Mar-07 11:59N 19°12' W 096°08'0 0.0
2018-Mar-07 11:29N 19°12' W 096°08'0 0.0
2018-Mar-07 10:59N 19°12' W 096°08'0 0.0
2018-Mar-07 10:29N 19°12' W 096°08'0 0.0
2018-Mar-07 09:59N 19°12' W 096°08'0 0.0
2018-Mar-07 04:35N 19°12' W 096°08'0 0.0
2018-Mar-07 04:20N 19°12' W 096°08'0 0.0
2018-Mar-07 03:05N 19°12' W 096°08'0 0.0
2018-Mar-07 02:59N 19°12' W 096°08'0 0.0
2018-Mar-07 02:14N 19°12' W 096°08'0 0.0
2018-Mar-07 01:59N 19°12' W 096°08'0 0.0
2018-Mar-07 01:26N 19°12' W 096°08'0 0.0
2018-Mar-06 23:59N 19°12' W 096°08'0 0.0
2018-Mar-06 23:29N 19°12' W 096°08'0 0.0
2018-Mar-06 21:41N 19°12' W 096°08'0 0.0
2018-Mar-06 21:29N 19°12' W 096°08'0 0.0
2018-Mar-06 20:38N 19°12' W 096°08'0 0.0
2018-Mar-06 20:26N 19°12' W 096°08'0 0.0
2018-Mar-06 19:53N 19°12' W 096°08'0 0.0
2018-Mar-06 19:29N 19°12' W 096°08'0 0.0
2018-Mar-06 18:59N 19°12' W 096°08'0 0.0
2018-Mar-06 18:29N 19°12' W 096°08'0 0.0
2018-Mar-06 17:53N 19°12' W 096°08'0 0.0
2018-Mar-06 17:29N 19°12' W 096°08'0 0.0
2018-Mar-06 16:59N 19°12' W 096°08'0 0.0
2018-Mar-06 16:29N 19°12' W 096°08'0 0.0
2018-Mar-06 15:59N 19°12' W 096°08'0 0.0
2018-Mar-06 15:29N 19°12' W 096°08'0 0.0
2018-Mar-06 14:59N 19°12' W 096°08'0 0.0
2018-Mar-06 14:29N 19°12' W 096°08'0 0.0
2018-Mar-06 13:59N 19°12' W 096°08'0 0.0
2018-Mar-06 13:29N 19°12' W 096°08'0 0.0
2018-Mar-06 12:59N 19°12' W 096°08'0 0.0
2018-Mar-06 12:29N 19°12' W 096°08'0 0.0
2018-Mar-06 11:59N 19°12' W 096°08'0 0.0
2018-Mar-06 11:29N 19°12' W 096°08'0 0.0
2018-Mar-06 10:59N 19°12' W 096°08'0 0.0
2018-Mar-06 10:29N 19°12' W 096°08'0 0.0
2018-Mar-06 09:59N 19°12' W 096°08'0 0.0
2018-Mar-06 09:29N 19°12' W 096°08'0 0.0
2018-Mar-06 08:53N 19°12' W 096°08'0 0.0
2018-Mar-06 08:11N 19°12' W 096°08'0 0.0
2018-Mar-06 07:59N 19°12' W 096°08'0 0.0
2018-Mar-06 07:29N 19°12' W 096°08'0 0.0
2018-Mar-06 06:59N 19°12' W 096°08'0 0.0
2018-Mar-06 06:29N 19°12' W 096°08'0 0.0
2018-Mar-06 05:23N 19°12' W 096°08'0 0.0
2018-Mar-06 04:59N 19°12' W 096°08'0 0.0
2018-Mar-06 04:29N 19°12' W 096°08'0 0.0
2018-Mar-06 03:53N 19°12' W 096°08'0 0.0
2018-Mar-06 03:28N 19°12' W 096°08'0 0.0
2018-Mar-06 02:59N 19°12' W 096°08'0 0.0
2018-Mar-06 02:29N 19°12' W 096°08'0 0.0
2018-Mar-06 01:59N 19°12' W 096°08'0 0.0
2018-Mar-06 01:29N 19°12' W 096°08'0 0.0
2018-Mar-06 00:59N 19°12' W 096°08'0 0.0
2018-Mar-06 00:23N 19°12' W 096°08'0 0.0
2018-Mar-05 23:59N 19°12' W 096°08'0 0.0
2018-Mar-05 23:29N 19°12' W 096°08'  
Track history (hours):
 
Tides and Currents Weather Stations Pressure Air Temp Water Temp Dewpoint Dewpoint Depression Visibility Wind Speed Wind Dir Waves Ship Positions

Cerro Del Tepeyac

Last reported at 2018-Mar-15 23:19 UTC. Time now 2018-Jun-24 07:03 UTC.
Position N 19°35' W 096°10'.
Warning: this ship's position is months out of date.

Length 120 m; draft 5.3 m.

Type: Tanker. MMSI: 345030096.

Date/timePositionNaut miles runAvg speedWind from/ knotsBaromVisibWave heightAir tempDewpointWater temp
2018-Mar-15 23:19N 19°35' W 096°10'2 5.2
2018-Mar-15 23:00N 19°34' W 096°09'3 5.1
2018-Mar-15 22:30N 19°32' W 096°08'2 5.0
2018-Mar-15 22:00N 19°29' W 096°06'2 4.8
2018-Mar-15 21:31N 19°28' W 096°05'3 5.0
2018-Mar-15 20:57N 19°25' W 096°03'2 5.1
2018-Mar-15 20:30N 19°24' W 096°01'2 4.8
2018-Mar-15 20:00N 19°22' W 095°60'3 5.1
2018-Mar-15 19:30N 19°20' W 095°58'3 5.1
2018-Mar-15 19:00N 19°17' W 095°57'3 5.2
2018-Mar-15 18:31N 19°15' W 095°57'3 5.6
2018-Mar-15 18:00N 19°13' W 095°59'3 5.7
2018-Mar-15 17:30N 19°12' W 096°02'2 4.7
2018-Mar-15 17:00N 19°11' W 096°04'3 5.2
2018-Mar-15 16:29N 19°12' W 096°07'1 2.1
2018-Mar-15 15:59N 19°12' W 096°08'0 0.0
2018-Mar-15 15:29N 19°12' W 096°08'0 0.0
2018-Mar-15 14:53N 19°12' W 096°08'0 0.0
2018-Mar-15 14:29N 19°12' W 096°08'0 0.0
2018-Mar-15 13:59N 19°12' W 096°08'0 0.0
2018-Mar-15 13:23N 19°12' W 096°08'0 0.0
2018-Mar-15 12:47N 19°12' W 096°08'0 0.0
2018-Mar-15 12:29N 19°12' W 096°08'0 0.0
2018-Mar-15 11:59N 19°12' W 096°08'0 0.0
2018-Mar-15 11:29N 19°12' W 096°08'0 0.0
2018-Mar-15 10:59N 19°12' W 096°08'0 0.0
2018-Mar-15 10:29N 19°12' W 096°08'0 0.0
2018-Mar-15 09:59N 19°12' W 096°08'0 0.0
2018-Mar-15 09:29N 19°12' W 096°08'0 0.0
2018-Mar-15 08:59N 19°12' W 096°08'0 0.0
2018-Mar-15 08:29N 19°12' W 096°08'0 0.0
2018-Mar-15 07:59N 19°12' W 096°08'0 0.0
2018-Mar-15 07:23N 19°12' W 096°08'0 0.0
2018-Mar-15 06:59N 19°12' W 096°08'0 0.0
2018-Mar-15 06:29N 19°12' W 096°08'0 0.0
2018-Mar-15 05:47N 19°12' W 096°08'0 0.0
2018-Mar-15 05:29N 19°12' W 096°08'0 0.0
2018-Mar-15 04:53N 19°12' W 096°08'0 0.0
2018-Mar-15 04:29N 19°12' W 096°08'0 0.0
2018-Mar-15 03:59N 19°12' W 096°08'0 0.0
2018-Mar-15 03:29N 19°12' W 096°08'0 0.0
2018-Mar-15 02:59N 19°12' W 096°08'0 0.0
2018-Mar-15 02:17N 19°12' W 096°08'0 0.0
2018-Mar-15 01:59N 19°12' W 096°08'0 0.0
2018-Mar-15 01:29N 19°12' W 096°08'0 0.0
2018-Mar-15 00:53N 19°12' W 096°08'0 0.0
2018-Mar-15 00:29N 19°12' W 096°08'0 0.0
2018-Mar-14 23:59N 19°12' W 096°08'0 0.0
2018-Mar-14 23:29N 19°12' W 096°08'0 0.0
2018-Mar-14 22:59N 19°12' W 096°08'0 0.0
2018-Mar-14 22:29N 19°12' W 096°08'0 0.0
2018-Mar-14 21:59N 19°12' W 096°08'0 0.0
2018-Mar-14 21:23N 19°12' W 096°08'0 0.0
2018-Mar-14 20:59N 19°12' W 096°08'0 0.0
2018-Mar-14 20:29N 19°12' W 096°08'0 0.0
2018-Mar-14 19:59N 19°12' W 096°08'0 0.0
2018-Mar-14 19:29N 19°12' W 096°08'0 0.0
2018-Mar-14 18:59N 19°12' W 096°08'0 0.0
2018-Mar-14 18:29N 19°12' W 096°08'0 0.0
2018-Mar-14 17:59N 19°12' W 096°08'0 0.0
2018-Mar-14 17:29N 19°12' W 096°08'0 0.0
2018-Mar-14 16:59N 19°12' W 096°08'0 0.0
2018-Mar-14 16:29N 19°12' W 096°08'0 0.0
2018-Mar-14 15:53N 19°12' W 096°08'0 0.0
2018-Mar-14 15:29N 19°12' W 096°08'0 0.0
2018-Mar-14 14:59N 19°12' W 096°08'0 0.0
2018-Mar-14 14:29N 19°12' W 096°08'0 0.0
2018-Mar-14 13:59N 19°12' W 096°08'0 0.0
2018-Mar-14 13:29N 19°12' W 096°08'0 0.0
2018-Mar-14 12:59N 19°12' W 096°08'0 0.0
2018-Mar-14 12:29N 19°12' W 096°08'0 0.0
2018-Mar-14 11:59N 19°12' W 096°08'0 0.0
2018-Mar-14 11:29N 19°12' W 096°08'0 0.0
2018-Mar-14 10:59N 19°12' W 096°08'0 0.0
2018-Mar-14 10:29N 19°12' W 096°08'0 0.0
2018-Mar-14 09:59N 19°12' W 096°08'0 0.0
2018-Mar-14 09:29N 19°12' W 096°08'0 0.0
2018-Mar-14 08:53N 19°12' W 096°08'0 0.0
2018-Mar-14 08:29N 19°12' W 096°08'0 0.0
2018-Mar-14 07:59N 19°12' W 096°08'0 0.0
2018-Mar-14 07:29N 19°12' W 096°08'0 0.0
2018-Mar-14 06:59N 19°12' W 096°08'0 0.0
2018-Mar-14 06:29N 19°12' W 096°08'0 0.0
2018-Mar-14 05:59N 19°12' W 096°08'0 0.0
2018-Mar-14 05:29N 19°12' W 096°08'0 0.0
2018-Mar-14 04:59N 19°12' W 096°08'0 0.0
2018-Mar-14 04:29N 19°12' W 096°08'0 0.0
2018-Mar-14 03:56N 19°12' W 096°08'0 0.0
2018-Mar-14 03:29N 19°12' W 096°08'0 0.0
2018-Mar-14 02:59N 19°12' W 096°08'0 0.0
2018-Mar-14 02:29N 19°12' W 096°08'0 0.0
2018-Mar-14 01:59N 19°12' W 096°08'0 0.0
2018-Mar-14 01:29N 19°12' W 096°08'0 0.0
2018-Mar-14 00:59N 19°12' W 096°08'0 0.0
2018-Mar-14 00:29N 19°12' W 096°08'0 0.0
2018-Mar-13 23:59N 19°12' W 096°08'0 0.0
2018-Mar-13 23:29N 19°12' W 096°08'0 0.0
2018-Mar-13 22:59N 19°12' W 096°08'0 0.0
2018-Mar-13 22:29N 19°12' W 096°08'0 0.0
2018-Mar-13 21:59N 19°12' W 096°08'0 0.0
2018-Mar-13 21:29N 19°12' W 096°08'0 0.0
2018-Mar-13 20:59N 19°12' W 096°08'0 0.0
2018-Mar-13 20:29N 19°12' W 096°08'0 0.0
2018-Mar-13 19:59N 19°12' W 096°08'0 0.0
2018-Mar-13 19:29N 19°12' W 096°08'0 0.0
2018-Mar-13 18:59N 19°12' W 096°08'0 0.0
2018-Mar-13 18:29N 19°12' W 096°08'0 0.0
2018-Mar-13 17:53N 19°12' W 096°08'0 0.0
2018-Mar-13 17:29N 19°12' W 096°08'0 0.0
2018-Mar-13 16:59N 19°12' W 096°08'0 0.0
2018-Mar-13 16:29N 19°12' W 096°08'0 0.0
2018-Mar-13 15:59N 19°12' W 096°08'0 0.0
2018-Mar-13 15:29N 19°12' W 096°08'0 0.0
2018-Mar-13 14:59N 19°12' W 096°08'0 0.0
2018-Mar-13 14:29N 19°12' W 096°08'0 0.0
2018-Mar-13 13:53N 19°12' W 096°08'0 0.0
2018-Mar-13 13:29N 19°12' W 096°08'0 0.0
2018-Mar-13 12:59N 19°12' W 096°08'0 0.0
2018-Mar-13 12:29N 19°12' W 096°08'0 0.0
2018-Mar-13 11:59N 19°12' W 096°08'0 0.0
2018-Mar-13 11:29N 19°12' W 096°08'0 0.0
2018-Mar-13 10:59N 19°12' W 096°08'0 0.0
2018-Mar-13 10:26N 19°12' W 096°08'0 0.0
2018-Mar-13 09:59N 19°12' W 096°08'0 0.0
2018-Mar-13 09:29N 19°12' W 096°08'0 0.0
2018-Mar-13 08:59N 19°12' W 096°08'0 0.0
2018-Mar-13 08:29N 19°12' W 096°08'0 0.0
2018-Mar-13 07:59N 19°12' W 096°08'0 0.0
2018-Mar-13 07:29N 19°12' W 096°08'0 0.0
2018-Mar-13 06:59N 19°12' W 096°08'0 0.0
2018-Mar-13 06:29N 19°12' W 096°08'0 0.0
2018-Mar-13 05:59N 19°12' W 096°08'0 0.0
2018-Mar-13 05:29N 19°12' W 096°08'0 0.0
2018-Mar-13 04:59N 19°12' W 096°08'0 0.0
2018-Mar-13 04:29N 19°12' W 096°08'0 0.0
2018-Mar-13 03:59N 19°12' W 096°08'0 0.0
2018-Mar-13 03:29N 19°12' W 096°08'0 0.0
2018-Mar-13 02:59N 19°12' W 096°08'0 0.0
2018-Mar-13 02:29N 19°12' W 096°08'0 0.0
2018-Mar-13 01:59N 19°12' W 096°08'0 0.0
2018-Mar-13 01:29N 19°12' W 096°08'0 0.0
2018-Mar-13 00:59N 19°12' W 096°08'0 0.0
2018-Mar-13 00:29N 19°12' W 096°08'0 0.0
2018-Mar-12 23:53N 19°12' W 096°08'0 0.0
2018-Mar-12 23:29N 19°12' W 096°08'0 0.0
2018-Mar-12 22:59N 19°12' W 096°08'0 0.0
2018-Mar-12 22:29N 19°12' W 096°08'0 0.0
2018-Mar-12 21:56N 19°12' W 096°08'0 0.0
2018-Mar-12 21:29N 19°12' W 096°08'0 0.0
2018-Mar-12 20:59N 19°12' W 096°08'0 0.0
2018-Mar-12 20:29N 19°12' W 096°08'0 0.0
2018-Mar-12 19:59N 19°12' W 096°08'0 0.0
2018-Mar-12 19:29N 19°12' W 096°08'0 0.0
2018-Mar-12 18:59N 19°12' W 096°08'0 0.0
2018-Mar-12 18:29N 19°12' W 096°08'0 0.0
2018-Mar-12 17:56N 19°12' W 096°08'0 0.0
2018-Mar-12 17:29N 19°12' W 096°08'0 0.0
2018-Mar-12 16:59N 19°12' W 096°08'0 0.0
2018-Mar-12 16:11N 19°12' W 096°08'0 0.0
2018-Mar-12 15:53N 19°12' W 096°08'0 0.0
2018-Mar-12 15:29N 19°12' W 096°08'0 0.0
2018-Mar-12 14:53N 19°12' W 096°08'0 0.0
2018-Mar-12 14:29N 19°12' W 096°08'0 0.0
2018-Mar-12 13:59N 19°12' W 096°08'0 0.0
2018-Mar-12 13:29N 19°12' W 096°08'0 0.0
2018-Mar-12 12:59N 19°12' W 096°08'0 0.0
2018-Mar-12 12:29N 19°12' W 096°08'0 0.0
2018-Mar-12 11:59N 19°12' W 096°08'0 0.0
2018-Mar-12 11:29N 19°12' W 096°08'0 0.0
2018-Mar-12 10:59N 19°12' W 096°08'0 0.0
2018-Mar-12 10:29N 19°12' W 096°08'0 0.0
2018-Mar-12 09:59N 19°12' W 096°08'0 0.0
2018-Mar-12 09:29N 19°12' W 096°08'0 0.0
2018-Mar-12 08:59N 19°12' W 096°08'0 0.0
2018-Mar-12 08:29N 19°12' W 096°08'0 0.0
2018-Mar-12 07:59N 19°12' W 096°08'0 0.0
2018-Mar-12 07:26N 19°12' W 096°08'0 0.0
2018-Mar-12 06:59N 19°12' W 096°08'0 0.0
2018-Mar-12 06:26N 19°12' W 096°08'0 0.0
2018-Mar-12 05:59N 19°12' W 096°08'0 0.0
2018-Mar-12 05:29N 19°12' W 096°08'0 0.0
2018-Mar-12 04:59N 19°12' W 096°08'0 0.0
2018-Mar-12 04:29N 19°12' W 096°08'0 0.0
2018-Mar-12 03:59N 19°12' W 096°08'0 0.0
2018-Mar-12 03:29N 19°12' W 096°08'0 0.0
2018-Mar-12 02:59N 19°12' W 096°08'0 0.0
2018-Mar-12 02:29N 19°12' W 096°08'0 0.0
2018-Mar-12 01:59N 19°12' W 096°08'0 0.0
2018-Mar-12 01:29N 19°12' W 096°08'0 0.0
2018-Mar-12 00:59N 19°12' W 096°08'0 0.0
2018-Mar-12 00:29N 19°12' W 096°08'0 0.0
2018-Mar-11 23:59N 19°12' W 096°08'0 0.0
2018-Mar-11 23:29N 19°12' W 096°08'0 0.0
2018-Mar-11 22:59N 19°12' W 096°08'0 0.0
2018-Mar-11 22:26N 19°12' W 096°08'0 0.0
2018-Mar-11 21:59N 19°12' W 096°08'0 0.0
2018-Mar-11 21:29N 19°12' W 096°08'0 0.0
2018-Mar-11 20:59N 19°12' W 096°08'0 0.0
2018-Mar-11 20:23N 19°12' W 096°08'0 0.0
2018-Mar-11 19:59N 19°12' W 096°08'0 0.0
2018-Mar-11 19:29N 19°12' W 096°08'0 0.0
2018-Mar-11 18:59N 19°12' W 096°08'0 0.0
2018-Mar-11 18:29N 19°12' W 096°08'0 0.0
2018-Mar-11 17:59N 19°12' W 096°08'0 0.0
2018-Mar-11 17:29N 19°12' W 096°08'0 0.0
2018-Mar-11 16:59N 19°12' W 096°08'0 0.0
2018-Mar-11 16:26N 19°12' W 096°08'0 0.0
2018-Mar-11 15:59N 19°12' W 096°08'0 0.0
2018-Mar-11 15:29N 19°12' W 096°08'0 0.0
2018-Mar-11 14:53N 19°12' W 096°08'0 0.0
2018-Mar-11 14:29N 19°12' W 096°08'0 0.0
2018-Mar-11 13:59N 19°12' W 096°08'0 0.0
2018-Mar-11 13:29N 19°12' W 096°08'0 0.0
2018-Mar-11 12:59N 19°12' W 096°08'0 0.0
2018-Mar-11 12:26N 19°12' W 096°08'0 0.0
2018-Mar-11 11:59N 19°12' W 096°08'0 0.0
2018-Mar-11 11:29N 19°12' W 096°08'0 0.0
2018-Mar-11 10:50N 19°12' W 096°08'0 0.0
2018-Mar-11 10:29N 19°12' W 096°08'0 0.0
2018-Mar-11 09:59N 19°12' W 096°08'0 0.0
2018-Mar-11 09:29N 19°12' W 096°08'0 0.0
2018-Mar-11 08:59N 19°12' W 096°08'0 0.0
2018-Mar-11 08:29N 19°12' W 096°08'0 0.0
2018-Mar-11 07:59N 19°12' W 096°08'0 0.0
2018-Mar-11 07:29N 19°12' W 096°08'0 0.0
2018-Mar-11 06:59N 19°12' W 096°08'0 0.0
2018-Mar-11 06:23N 19°12' W 096°08'0 0.0
2018-Mar-11 05:59N 19°12' W 096°08'0 0.0
2018-Mar-11 05:29N 19°12' W 096°08'0 0.0
2018-Mar-11 04:59N 19°12' W 096°08'0 0.0
2018-Mar-11 04:29N 19°12' W 096°08'0 0.0
2018-Mar-11 03:59N 19°12' W 096°08'0 0.0
2018-Mar-11 03:29N 19°12' W 096°08'0 0.0
2018-Mar-11 02:59N 19°12' W 096°08'0 0.0
2018-Mar-11 02:29N 19°12' W 096°08'0 0.0
2018-Mar-11 01:59N 19°12' W 096°08'0 0.0
2018-Mar-11 01:29N 19°12' W 096°08'0 0.0
2018-Mar-11 00:59N 19°12' W 096°08'0 0.0
2018-Mar-11 00:29N 19°12' W 096°08'0 0.0
2018-Mar-10 23:59N 19°12' W 096°08'0 0.0
2018-Mar-10 23:29N 19°12' W 096°08'0 0.0
2018-Mar-10 22:59N 19°12' W 096°08'0 0.0
2018-Mar-10 22:29N 19°12' W 096°08'0 0.0
2018-Mar-10 21:59N 19°12' W 096°08'0 0.0
2018-Mar-10 21:29N 19°12' W 096°08'0 0.0
2018-Mar-10 20:59N 19°12' W 096°08'0 0.0
2018-Mar-10 20:29N 19°12' W 096°08'0 0.0
2018-Mar-10 19:59N 19°12' W 096°08'0 0.0
2018-Mar-10 19:29N 19°12' W 096°08'0 0.0
2018-Mar-10 18:59N 19°12' W 096°08'0 0.0
2018-Mar-10 18:23N 19°12' W 096°08'0 0.0
2018-Mar-10 17:59N 19°12' W 096°08'0 0.0
2018-Mar-10 17:29N 19°12' W 096°08'0 0.0
2018-Mar-10 16:53N 19°12' W 096°08'0 0.0
2018-Mar-10 16:29N 19°12' W 096°08'0 0.0
2018-Mar-10 15:59N 19°12' W 096°08'0 0.0
2018-Mar-10 15:29N 19°12' W 096°08'0 0.0
2018-Mar-10 14:59N 19°12' W 096°08'0 0.0
2018-Mar-10 14:29N 19°12' W 096°08'0 0.0
2018-Mar-10 13:59N 19°12' W 096°08'0 0.0
2018-Mar-10 13:29N 19°12' W 096°08'0 0.0
2018-Mar-10 12:59N 19°12' W 096°08'0 0.0
2018-Mar-10 12:29N 19°12' W 096°08'0 0.0
2018-Mar-10 11:59N 19°12' W 096°08'0 0.0
2018-Mar-10 11:29N 19°12' W 096°08'0 0.0
2018-Mar-10 10:59N 19°12' W 096°08'0 0.0
2018-Mar-10 10:29N 19°12' W 096°08'0 0.0
2018-Mar-10 09:59N 19°12' W 096°08'0 0.0
2018-Mar-10 09:29N 19°12' W 096°08'0 0.0
2018-Mar-10 08:56N 19°12' W 096°08'0 0.0
2018-Mar-10 08:29N 19°12' W 096°08'0 0.0
2018-Mar-10 07:59N 19°12' W 096°08'0 0.0
2018-Mar-10 07:29N 19°12' W 096°08'0 0.0
2018-Mar-10 06:59N 19°12' W 096°08'0 0.0
2018-Mar-10 06:23N 19°12' W 096°08'0 0.0
2018-Mar-10 05:59N 19°12' W 096°08'0 0.0
2018-Mar-10 05:29N 19°12' W 096°08'0 0.0
2018-Mar-10 04:59N 19°12' W 096°08'0 0.0
2018-Mar-10 04:29N 19°12' W 096°08'0 0.0
2018-Mar-10 03:59N 19°12' W 096°08'0 0.0
2018-Mar-10 03:29N 19°12' W 096°08'0 0.0
2018-Mar-10 02:59N 19°12' W 096°08'0 0.0
2018-Mar-10 02:23N 19°12' W 096°08'0 0.0
2018-Mar-10 01:59N 19°12' W 096°08'0 0.0
2018-Mar-10 01:29N 19°12' W 096°08'0 0.0
2018-Mar-10 00:59N 19°12' W 096°08'0 0.0
2018-Mar-10 00:29N 19°12' W 096°08'0 0.0
2018-Mar-09 23:59N 19°12' W 096°08'0 0.0
2018-Mar-09 23:29N 19°12' W 096°08'0 0.0
2018-Mar-09 22:59N 19°12' W 096°08'0 0.0
2018-Mar-09 22:29N 19°12' W 096°08'0 0.0
2018-Mar-09 21:59N 19°12' W 096°08'0 0.0
2018-Mar-09 21:29N 19°12' W 096°08'0 0.0
2018-Mar-09 20:59N 19°12' W 096°08'0 0.0
2018-Mar-09 20:29N 19°12' W 096°08'0 0.0
2018-Mar-09 19:53N 19°12' W 096°08'0 0.0
2018-Mar-09 19:29N 19°12' W 096°08'0 0.0
2018-Mar-09 18:59N 19°12' W 096°08'0 0.0
2018-Mar-09 18:29N 19°12' W 096°08'0 0.0
2018-Mar-09 17:59N 19°12' W 096°08'0 0.0
2018-Mar-09 17:29N 19°12' W 096°08'0 0.0
2018-Mar-09 16:59N 19°12' W 096°08'0 0.0
2018-Mar-09 16:29N 19°12' W 096°08'0 0.0
2018-Mar-09 15:59N 19°12' W 096°08'0 0.0
2018-Mar-09 15:29N 19°12' W 096°08'0 0.0
2018-Mar-09 14:59N 19°12' W 096°08'0 0.0
2018-Mar-09 14:26N 19°12' W 096°08'0 0.0
2018-Mar-09 13:53N 19°12' W 096°08'0 0.0
2018-Mar-09 13:29N 19°12' W 096°08'0 0.0
2018-Mar-09 12:59N 19°12' W 096°08'0 0.0
2018-Mar-09 12:29N 19°12' W 096°08'0 0.0
2018-Mar-09 11:59N 19°12' W 096°08'0 0.0
2018-Mar-09 11:29N 19°12' W 096°08'0 0.0
2018-Mar-09 10:59N 19°12' W 096°08'0 0.0
2018-Mar-09 10:29N 19°12' W 096°08'0 0.0
2018-Mar-09 09:50N 19°12' W 096°08'0 0.0
2018-Mar-09 09:29N 19°12' W 096°08'0 0.0
2018-Mar-09 08:59N 19°12' W 096°08'0 0.0
2018-Mar-09 08:29N 19°12' W 096°08'0 0.0
2018-Mar-09 07:59N 19°12' W 096°08'0 0.0
2018-Mar-09 07:29N 19°12' W 096°08'0 0.0
2018-Mar-09 06:59N 19°12' W 096°08'0 0.0
2018-Mar-09 06:29N 19°12' W 096°08'0 0.0
2018-Mar-09 05:59N 19°12' W 096°08'0 0.0
2018-Mar-09 05:29N 19°12' W 096°08'0 0.0
2018-Mar-09 04:59N 19°12' W 096°08'0 0.0
2018-Mar-09 04:29N 19°12' W 096°08'0 0.0
2018-Mar-09 03:56N 19°12' W 096°08'0 0.0
2018-Mar-09 03:29N 19°12' W 096°08'0 0.0
2018-Mar-09 02:59N 19°12' W 096°08'0 0.0
2018-Mar-09 02:29N 19°12' W 096°08'0 0.0
2018-Mar-09 01:53N 19°12' W 096°08'0 0.0
2018-Mar-09 01:29N 19°12' W 096°08'0 0.0
2018-Mar-09 00:59N 19°12' W 096°08'0 0.0
2018-Mar-09 00:29N 19°12' W 096°08'0 0.0
2018-Mar-08 23:59N 19°12' W 096°08'0 0.0
2018-Mar-08 23:29N 19°12' W 096°08'0 0.0
2018-Mar-08 22:59N 19°12' W 096°08'0 0.0
2018-Mar-08 22:29N 19°12' W 096°08'0 0.0
2018-Mar-08 21:56N 19°12' W 096°08'0 0.0
2018-Mar-08 21:23N 19°12' W 096°08'0 0.0
2018-Mar-08 20:59N 19°12' W 096°08'0 0.0
2018-Mar-08 20:23N 19°12' W 096°08'0 0.0
2018-Mar-07 21:59N 19°12' W 096°08'0 0.0
2018-Mar-07 21:29N 19°12' W 096°08'0 0.0
2018-Mar-07 20:59N 19°12' W 096°08'0 0.0
2018-Mar-07 20:29N 19°12' W 096°08'0 0.0
2018-Mar-07 19:59N 19°12' W 096°08'0 0.0
2018-Mar-07 19:29N 19°12' W 096°08'0 0.0
2018-Mar-07 18:59N 19°12' W 096°08'0 0.0
2018-Mar-07 18:26N 19°12' W 096°08'0 0.0
2018-Mar-07 17:59N 19°12' W 096°08'0 0.0
2018-Mar-07 17:29N 19°12' W 096°08'0 0.0
2018-Mar-07 16:59N 19°12' W 096°08'0 0.0
2018-Mar-07 16:26N 19°12' W 096°08'0 0.0
2018-Mar-07 15:59N 19°12' W 096°08'0 0.0
2018-Mar-07 15:29N 19°12' W 096°08'0 0.0
2018-Mar-07 14:56N 19°12' W 096°08'0 0.0
2018-Mar-07 14:29N 19°12' W 096°08'0 0.0
2018-Mar-07 13:59N 19°12' W 096°08'0 0.0
2018-Mar-07 13:17N 19°12' W 096°08'0 0.0
2018-Mar-07 12:59N 19°12' W 096°08'0 0.0
2018-Mar-07 12:29N 19°12' W 096°08'0 0.0
2018-Mar-07 11:59N 19°12' W 096°08'0 0.0
2018-Mar-07 11:29N 19°12' W 096°08'0 0.0
2018-Mar-07 10:59N 19°12' W 096°08'0 0.0
2018-Mar-07 10:29N 19°12' W 096°08'0 0.0
2018-Mar-07 09:59N 19°12' W 096°08'0 0.0
2018-Mar-07 04:35N 19°12' W 096°08'0 0.0
2018-Mar-07 04:20N 19°12' W 096°08'0 0.0
2018-Mar-07 03:05N 19°12' W 096°08'0 0.0
2018-Mar-07 02:59N 19°12' W 096°08'0 0.0
2018-Mar-07 02:14N 19°12' W 096°08'0 0.0
2018-Mar-07 01:59N 19°12' W 096°08'0 0.0
2018-Mar-07 01:26N 19°12' W 096°08'0 0.0
2018-Mar-06 23:59N 19°12' W 096°08'0 0.0
2018-Mar-06 23:29N 19°12' W 096°08'0 0.0
2018-Mar-06 21:41N 19°12' W 096°08'0 0.0
2018-Mar-06 21:29N 19°12' W 096°08'0 0.0
2018-Mar-06 20:38N 19°12' W 096°08'0 0.0
2018-Mar-06 20:26N 19°12' W 096°08'0 0.0
2018-Mar-06 19:53N 19°12' W 096°08'0 0.0
2018-Mar-06 19:29N 19°12' W 096°08'0 0.0
2018-Mar-06 18:59N 19°12' W 096°08'0 0.0
2018-Mar-06 18:29N 19°12' W 096°08'0 0.0
2018-Mar-06 17:53N 19°12' W 096°08'0 0.0
2018-Mar-06 17:29N 19°12' W 096°08'0 0.0
2018-Mar-06 16:59N 19°12' W 096°08'0 0.0
2018-Mar-06 16:29N 19°12' W 096°08'0 0.0
2018-Mar-06 15:59N 19°12' W 096°08'0 0.0
2018-Mar-06 15:29N 19°12' W 096°08'0 0.0
2018-Mar-06 14:59N 19°12' W 096°08'0 0.0
2018-Mar-06 14:29N 19°12' W 096°08'0 0.0
2018-Mar-06 13:59N 19°12' W 096°08'0 0.0
2018-Mar-06 13:29N 19°12' W 096°08'0 0.0
2018-Mar-06 12:59N 19°12' W 096°08'0 0.0
2018-Mar-06 12:29N 19°12' W 096°08'0 0.0
2018-Mar-06 11:59N 19°12' W 096°08'0 0.0
2018-Mar-06 11:29N 19°12' W 096°08'0 0.0
2018-Mar-06 10:59N 19°12' W 096°08'0 0.0
2018-Mar-06 10:29N 19°12' W 096°08'0 0.0
2018-Mar-06 09:59N 19°12' W 096°08'0 0.0
2018-Mar-06 09:29N 19°12' W 096°08'0 0.0
2018-Mar-06 08:53N 19°12' W 096°08'0 0.0
2018-Mar-06 08:11N 19°12' W 096°08'0 0.0
2018-Mar-06 07:59N 19°12' W 096°08'0 0.0
2018-Mar-06 07:29N 19°12' W 096°08'0 0.0
2018-Mar-06 06:59N 19°12' W 096°08'0 0.0
2018-Mar-06 06:29N 19°12' W 096°08'0 0.0
2018-Mar-06 05:23N 19°12' W 096°08'0 0.0
2018-Mar-06 04:59N 19°12' W 096°08'0 0.0
2018-Mar-06 04:29N 19°12' W 096°08'0 0.0
2018-Mar-06 03:53N 19°12' W 096°08'0 0.0
2018-Mar-06 03:28N 19°12' W 096°08'0 0.0
2018-Mar-06 02:59N 19°12' W 096°08'0 0.0
2018-Mar-06 02:29N 19°12' W 096°08'0 0.0
2018-Mar-06 01:59N 19°12' W 096°08'0 0.0
2018-Mar-06 01:29N 19°12' W 096°08'0 0.0
2018-Mar-06 00:59N 19°12' W 096°08'0 0.0
2018-Mar-06 00:23N 19°12' W 096°08'0 0.0
2018-Mar-05 23:59N 19°12' W 096°08'0 0.0
2018-Mar-05 23:29N 19°12' W 096°08'  

Dump ship's entire track history